Arcadia — ZCDN2 — position and weather

sailwx.info

Track history (hours):
 
Tides and Currents Weather Stations Pressure Air Temp Water Temp Dewpoint Dewpoint Depression Visibility Wind Speed Wind Dir Waves Ship Positions

Arcadia

Last reported at 2018-May-26 17:00 UTC. Time now 2018-May-27 03:38 UTC.
Position N 41°30' W 009°48'.

Length 285.1 m; beam 32.2 m; draft 8 m.

Type: Passenger vessel. MMSI: 310459000.

Wind from 010 at 22 knots

Barometer 1013.1 mb
Air temperature 16.0 ° C
Visibility: greater than 10.8 NM
Dewpoint 12.4 ° C
Water temperature 14.0 ° C

Date/timePositionNaut miles runAvg speedWind from/ knotsBaromVisibWave heightAir tempDewpointWater temp
2018-May-26 17:00N 41°30' W 009°48'13420.2 010 / 221013.110.8 16.012.414.0
2018-May-26 10:23N 39°16' W 009°52'821.4
2018-May-26 10:00N 39°09' W 009°53'1121.1
2018-May-26 09:30N 38°58' W 009°52'1121.2
2018-May-26 09:00N 38°48' W 009°51'1121.3
2018-May-26 08:30N 38°37' W 009°50'1121.1
2018-May-26 08:00N 38°27' W 009°48'1121.3
2018-May-26 07:31N 38°17' W 009°43'1021.0
2018-May-26 07:01N 38°07' W 009°37'1121.0
2018-May-26 06:31N 37°57' W 009°35'1529.8
2018-May-26 06:00N 37°42' W 009°30'21513.3 300 / 31012.710.8 16.012.415.0
2018-May-25 13:50N 35°57' W 005°35'412.6
2018-May-25 13:30N 35°59' W 005°30'612.2
2018-May-25 13:00N 36°01' W 005°23'8 1.0
2018-May-25 05:19N 36°09' W 005°22'2 5.6
2018-May-25 05:00N 36°07' W 005°22'611.1
2018-May-25 04:30N 36°05' W 005°16'20417.7
2018-May-24 17:00N 36°36' W 001°06'5518.9 050 / 201009.410.8 21.017.817.0
2018-May-24 14:05N 36°57' W 000°03'219.4
2018-May-24 14:00N 36°57' W 000°01'1219.4
2018-May-24 13:25N 37°00' E 000°13'8919.6
2018-May-24 08:52N 37°23' E 002°01'5218.0
2018-May-24 06:00N 37°30' E 003°06'4322.4 090 / 201014.710.8 19.016.517.0
2018-May-24 04:03N 37°44' E 003°58'320.8
2018-May-24 03:56N 37°45' E 004°01'5920.8
2018-May-24 01:07N 37°58' E 005°13'220.6
2018-May-24 01:00N 37°59' E 005°16'1120.6
2018-May-24 00:28N 38°01' E 005°30'920.4
2018-May-24 00:00N 38°03' E 005°41'1020.7
2018-May-23 23:30N 38°06' E 005°54'12519.1
2018-May-23 17:00N 38°30' E 008°30'204 9.7 300 / 221017.910.8 19.015.616.0
2018-May-22 19:52N 38°35' E 012°51'2318.9
2018-May-22 18:38N 38°30' E 013°21'318.8
2018-May-22 18:29N 38°30' E 013°24'1018.9
2018-May-22 17:58N 38°29' E 013°36'1010.6
2018-May-22 17:00N 38°24' E 013°48'16515.0 360 / 121013.110.8 20.018.419.0
2018-May-22 06:00N 38°36' E 017°18'22517.3 200 / 21014.410.8 20.018.418.0
2018-May-21 17:00N 42°18' E 018°06'195 4.8 310 / 81011.610.8 23.016.520.0
2018-May-20 00:01N 43°59' E 014°17'019.9
2018-May-20 00:00N 43°59' E 014°17'1319.3
2018-May-19 23:21N 44°06' E 014°02'819.7
2018-May-19 22:57N 44°12' E 013°56'1219.7
2018-May-19 22:21N 44°22' E 013°47'719.7
2018-May-19 21:59N 44°28' E 013°41'919.6
2018-May-19 21:30N 44°36' E 013°34'1019.6
2018-May-19 21:01N 44°44' E 013°27'1019.3
2018-May-19 20:31N 44°53' E 013°19'1019.4
2018-May-19 20:01N 44°60' E 013°10'917.8
2018-May-19 19:30N 45°05' E 013°00'815.7
2018-May-19 19:00N 45°10' E 012°52'815.6
2018-May-19 18:30N 45°15' E 012°43'815.6
2018-May-19 18:00N 45°21' E 012°35'713.8
2018-May-19 17:30N 45°25' E 012°27'4 7.3
2018-May-19 17:01N 45°25' E 012°22'3 5.2
2018-May-19 16:30N 45°26' E 012°18'0 0.0
2018-May-19 06:57N 45°26' E 012°18'0 0.0
2018-May-19 06:21N 45°26' E 012°18'0 0.0
2018-May-19 05:57N 45°26' E 012°18'0 0.0
2018-May-19 05:30N 45°26' E 012°18'0 0.0
2018-May-19 05:00N 45°26' E 012°18'0 0.5
2018-May-19 04:30N 45°26' E 012°18'2 4.7
2018-May-19 04:00N 45°26' E 012°21'3 5.8
2018-May-19 03:30N 45°25' E 012°26'510.3
2018-May-19 03:00N 45°22' E 012°32'713.3
2018-May-19 02:30N 45°16' E 012°34'714.3
2018-May-19 01:59N 45°12' E 012°42'714.2
2018-May-19 01:30N 45°07' E 012°49'714.8
2018-May-19 01:00N 44°60' E 012°53'715.0
2018-May-19 00:30N 44°53' E 012°57'815.5
2018-May-19 00:00N 44°45' E 013°00'1816.2
2018-May-18 22:53N 44°28' E 013°08'31418.6
2018-May-18 06:00N 40°48' E 018°12'20616.9 050 / 141015.010.8 20.014.918.0
2018-May-17 17:45N 37°51' E 015°55'819.3
2018-May-17 17:19N 37°51' E 015°44'722.1
2018-May-17 17:00N 37°48' E 015°36'1529.7 300 / 141014.410.8 19.015.615.0
2018-May-17 16:29N 38°03' E 015°34'817.7
2018-May-17 16:00N 38°11' E 015°35'1 0.2
2018-May-17 07:22N 38°12' E 015°33'0 0.0
2018-May-17 06:58N 38°12' E 015°34'0 0.0
2018-May-17 06:27N 38°12' E 015°34'1 1.0
2018-May-17 05:56N 38°12' E 015°34'4 9.1
2018-May-17 05:28N 38°15' E 015°38'610.1
2018-May-17 04:54N 38°20' E 015°36'614.2
2018-May-17 04:30N 38°21' E 015°29'714.5
2018-May-17 04:00N 38°21' E 015°19'714.5
2018-May-17 03:30N 38°20' E 015°10'714.6
2018-May-17 03:00N 38°19' E 015°01'714.7
2018-May-17 02:30N 38°19' E 014°51'815.1
2018-May-17 02:00N 38°19' E 014°42'4814.6
2018-May-16 22:44N 38°20' E 013°41'515.2
2018-May-16 22:25N 38°20' E 013°35'615.0
2018-May-16 22:00N 38°20' E 013°27'815.6
2018-May-16 21:30N 38°20' E 013°17'815.3
2018-May-16 21:00N 38°20' E 013°07'816.2
2018-May-16 20:30N 38°20' E 012°57'815.9
2018-May-16 20:00N 38°19' E 012°47'4715.5
2018-May-16 17:00N 38°12' E 011°48'   150 / 51015.510.8 18.010.616.0
Track history (hours):
 
Tides and Currents Weather Stations Pressure Air Temp Water Temp Dewpoint Dewpoint Depression Visibility Wind Speed Wind Dir Waves Ship Positions

Arcadia

Last reported at 2018-May-26 17:00 UTC. Time now 2018-May-27 03:38 UTC.
Position N 41°30' W 009°48'.

Length 285.1 m; beam 32.2 m; draft 8 m.

Type: Passenger vessel. MMSI: 310459000.

Wind from 010 at 22 knots

Barometer 1013.1 mb
Air temperature 16.0 ° C
Visibility: greater than 10.8 NM
Dewpoint 12.4 ° C
Water temperature 14.0 ° C

Date/timePositionNaut miles runAvg speedWind from/ knotsBaromVisibWave heightAir tempDewpointWater temp
2018-May-26 17:00N 41°30' W 009°48'13420.2 010 / 221013.110.8 16.012.414.0
2018-May-26 10:23N 39°16' W 009°52'821.4
2018-May-26 10:00N 39°09' W 009°53'1121.1
2018-May-26 09:30N 38°58' W 009°52'1121.2
2018-May-26 09:00N 38°48' W 009°51'1121.3
2018-May-26 08:30N 38°37' W 009°50'1121.1
2018-May-26 08:00N 38°27' W 009°48'1121.3
2018-May-26 07:31N 38°17' W 009°43'1021.0
2018-May-26 07:01N 38°07' W 009°37'1121.0
2018-May-26 06:31N 37°57' W 009°35'1529.8
2018-May-26 06:00N 37°42' W 009°30'21513.3 300 / 31012.710.8 16.012.415.0
2018-May-25 13:50N 35°57' W 005°35'412.6
2018-May-25 13:30N 35°59' W 005°30'612.2
2018-May-25 13:00N 36°01' W 005°23'8 1.0
2018-May-25 05:19N 36°09' W 005°22'2 5.6
2018-May-25 05:00N 36°07' W 005°22'611.1
2018-May-25 04:30N 36°05' W 005°16'20417.7
2018-May-24 17:00N 36°36' W 001°06'5518.9 050 / 201009.410.8 21.017.817.0
2018-May-24 14:05N 36°57' W 000°03'219.4
2018-May-24 14:00N 36°57' W 000°01'1219.4
2018-May-24 13:25N 37°00' E 000°13'8919.6
2018-May-24 08:52N 37°23' E 002°01'5218.0
2018-May-24 06:00N 37°30' E 003°06'4322.4 090 / 201014.710.8 19.016.517.0
2018-May-24 04:03N 37°44' E 003°58'320.8
2018-May-24 03:56N 37°45' E 004°01'5920.8
2018-May-24 01:07N 37°58' E 005°13'220.6
2018-May-24 01:00N 37°59' E 005°16'1120.6
2018-May-24 00:28N 38°01' E 005°30'920.4
2018-May-24 00:00N 38°03' E 005°41'1020.7
2018-May-23 23:30N 38°06' E 005°54'12519.1
2018-May-23 17:00N 38°30' E 008°30'204 9.7 300 / 221017.910.8 19.015.616.0
2018-May-22 19:52N 38°35' E 012°51'2318.9
2018-May-22 18:38N 38°30' E 013°21'318.8
2018-May-22 18:29N 38°30' E 013°24'1018.9
2018-May-22 17:58N 38°29' E 013°36'1010.6
2018-May-22 17:00N 38°24' E 013°48'16515.0 360 / 121013.110.8 20.018.419.0
2018-May-22 06:00N 38°36' E 017°18'22517.3 200 / 21014.410.8 20.018.418.0
2018-May-21 17:00N 42°18' E 018°06'195 4.8 310 / 81011.610.8 23.016.520.0
2018-May-20 00:01N 43°59' E 014°17'019.9
2018-May-20 00:00N 43°59' E 014°17'1319.3
2018-May-19 23:21N 44°06' E 014°02'819.7
2018-May-19 22:57N 44°12' E 013°56'1219.7
2018-May-19 22:21N 44°22' E 013°47'719.7
2018-May-19 21:59N 44°28' E 013°41'919.6
2018-May-19 21:30N 44°36' E 013°34'1019.6
2018-May-19 21:01N 44°44' E 013°27'1019.3
2018-May-19 20:31N 44°53' E 013°19'1019.4
2018-May-19 20:01N 44°60' E 013°10'917.8
2018-May-19 19:30N 45°05' E 013°00'815.7
2018-May-19 19:00N 45°10' E 012°52'815.6
2018-May-19 18:30N 45°15' E 012°43'815.6
2018-May-19 18:00N 45°21' E 012°35'713.8
2018-May-19 17:30N 45°25' E 012°27'4 7.3
2018-May-19 17:01N 45°25' E 012°22'3 5.2
2018-May-19 16:30N 45°26' E 012°18'0 0.0
2018-May-19 06:57N 45°26' E 012°18'0 0.0
2018-May-19 06:21N 45°26' E 012°18'0 0.0
2018-May-19 05:57N 45°26' E 012°18'0 0.0
2018-May-19 05:30N 45°26' E 012°18'0 0.0
2018-May-19 05:00N 45°26' E 012°18'0 0.5
2018-May-19 04:30N 45°26' E 012°18'2 4.7
2018-May-19 04:00N 45°26' E 012°21'3 5.8
2018-May-19 03:30N 45°25' E 012°26'510.3
2018-May-19 03:00N 45°22' E 012°32'713.3
2018-May-19 02:30N 45°16' E 012°34'714.3
2018-May-19 01:59N 45°12' E 012°42'714.2
2018-May-19 01:30N 45°07' E 012°49'714.8
2018-May-19 01:00N 44°60' E 012°53'715.0
2018-May-19 00:30N 44°53' E 012°57'815.5
2018-May-19 00:00N 44°45' E 013°00'1816.2
2018-May-18 22:53N 44°28' E 013°08'31418.6
2018-May-18 06:00N 40°48' E 018°12'20616.9 050 / 141015.010.8 20.014.918.0
2018-May-17 17:45N 37°51' E 015°55'819.3
2018-May-17 17:19N 37°51' E 015°44'722.1
2018-May-17 17:00N 37°48' E 015°36'1529.7 300 / 141014.410.8 19.015.615.0
2018-May-17 16:29N 38°03' E 015°34'817.7
2018-May-17 16:00N 38°11' E 015°35'1 0.2
2018-May-17 07:22N 38°12' E 015°33'0 0.0
2018-May-17 06:58N 38°12' E 015°34'0 0.0
2018-May-17 06:27N 38°12' E 015°34'1 1.0
2018-May-17 05:56N 38°12' E 015°34'4 9.1
2018-May-17 05:28N 38°15' E 015°38'610.1
2018-May-17 04:54N 38°20' E 015°36'614.2
2018-May-17 04:30N 38°21' E 015°29'714.5
2018-May-17 04:00N 38°21' E 015°19'714.5
2018-May-17 03:30N 38°20' E 015°10'714.6
2018-May-17 03:00N 38°19' E 015°01'714.7
2018-May-17 02:30N 38°19' E 014°51'815.1
2018-May-17 02:00N 38°19' E 014°42'4814.6
2018-May-16 22:44N 38°20' E 013°41'515.2
2018-May-16 22:25N 38°20' E 013°35'615.0
2018-May-16 22:00N 38°20' E 013°27'815.6
2018-May-16 21:30N 38°20' E 013°17'815.3
2018-May-16 21:00N 38°20' E 013°07'816.2
2018-May-16 20:30N 38°20' E 012°57'815.9
2018-May-16 20:00N 38°19' E 012°47'4715.5
2018-May-16 17:00N 38°12' E 011°48'   150 / 51015.510.8 18.010.616.0

Dump ship's entire track history